Aviation Digital Data Service (ADDS)

Output produced by METARs form (1912 UTC 18 June 2019)
found at http://www.aviationweather.gov/metar/data/
 
KM40 181855Z AUTO 17008KT 6SM -DZ FEW003 SCT030 BKN060 23/23 A2991 RMK AO2
KPMU 181855Z AUTO 00000KT SCT015 SCT090 26/23 A2989 RMK AO2
KHSA 181849Z 20009KT 7SM FEW021 SCT026 29/25 A2993
K1R7 181855Z AUTO VRB06G12KT 10SM SCT035 SCT041 BKN050 30/23 A2993 RMK AO2
KCKM 181855Z AUTO 26008KT 10SM FEW040 SCT048 BKN060 32/22 A2988 RMK A01
KRNV 181855Z AUTO 30004KT 10SM SCT034 29/22 A2989 RMK AO2 T02900216
KGTR 181909Z 21008KT 10SM SCT010 BKN016 27/24 A2989 RMK AO2 LTG DSNT E AND NW
KGTR 181738Z 1818/1918 24008KT 4SM -SHRA BR VCTS BKN025CB OVC110 
     FM182000 23007KT P6SM VCSH BKN050 
     FM190000 23005KT P6SM SCT120
       
KCRX 181855Z AUTO 00000KT 6SM -DZ FEW044 FEW055 SCT075 25/22 A2989 RMK AO2
KGLH 181853Z 18003KT 10SM SCT028 29/22 A2989 RMK AO2 SLP126 T02890217
KGLH 181738Z 1818/1918 25008KT P6SM VCSH SCT025 BKN040 
     FM190100 22005KT P6SM SCT250
       
KGWO 181853Z AUTO VRB04KT 10SM FEW026 30/23 A2988 RMK AO2 SLP117 T03000228
KGWO 181738Z 1818/1918 22008KT P6SM VCSH SCT025 BKN040 
     FM190100 20005KT P6SM SCT250
       
KGPT 181853Z 26005KT 10SM FEW026 SCT035 BKN065 29/24 A2992 RMK AO2 RAE1755 SLP131 P0000 T02890239
KGPT 181730Z 1818/1918 22008KT P6SM SCT019 SCT024 BKN100 
     TEMPO 1818/1822 VRB15G25KT 2SM TSRA BR BKN020CB 
     FM190300 17004KT P6SM SCT250 
     FM190900 24006KT P6SM VCSH SCT100 
     FM191200 24005KT P6SM BKN100
       
KHBG 181853Z AUTO 23008KT 10SM FEW100 28/22 A2993 RMK AO2 SLP131 T02780222
KHBG 181738Z 1818/1918 20006KT P6SM VCTS SCT050CB BKN100 
     FM190100 18003KT P6SM SCT120 
     FM191000 00000KT 5SM BR OVC007 
     FM191400 25006KT P6SM SCT025
       
KPIB 181856Z AUTO 21005KT 10SM FEW026 SCT100 29/23 A2992 RMK AO2 SLP130 T02890233
KPIB 181738Z 1818/1918 22009KT P6SM VCTS SCT050CB BKN100 
     FM190100 20005KT P6SM SCT120 
     FM191100 00000KT 5SM BR OVC007 
     FM191400 25006KT P6SM SCT025
       
KHKS 181853Z 23009KT 10SM SCT032 SCT042 BKN050 29/23 A2992 RMK AO2 SLP121 T02940228
KHKS 181738Z 1818/1918 23006KT P6SM VCSH BKN050 
     FM190000 20005KT P6SM SCT120
       
KJAN 181854Z 26010KT 10SM SCT034 BKN043 31/21 A2991 RMK AO2 SLP122 T03110211
KJAN 181738Z 1818/1918 23006KT P6SM VCSH BKN050 
     FM190000 20005KT P6SM SCT120
       
KLUL 181855Z AUTO 22005KT 10SM SCT025 SCT090 29/23 A2991 RMK A02 T02930231
KMBO 181855Z AUTO 24008KT 10SM SCT035 SCT041 29/22 A2990 RMK AO2 PWINO
KMCB 181853Z AUTO 36006KT 10SM FEW033 SCT055 31/21 A2991 RMK AO2 SLP123 T03110211
KMCB 181730Z 1818/1918 VRB04KT P6SM FEW027 SCT045 
     TEMPO 1818/1822 VRB15G25KT 2SM TSRA BR BKN025CB 
     FM190300 19002KT P6SM BKN250 
     FM190900 20004KT 3SM BR OVC015 
     FM191300 VRB04KT P6SM BKN008 
     FM191400 23005KT P6SM SCT110
       
KMEI 181858Z 17006KT 10SM -RA SCT025 BKN039 OVC100 27/23 A2991 RMK AO2 RAB31 SLP123 P0004 T02720233
KMEI 181738Z 1818/1918 21007KT P6SM VCSH BKN050 
     FM190000 21005KT P6SM SCT120 
     FM190900 20003KT 5SM BR BKN012 
     FM191400 23007KT P6SM SCT030
       
KHEZ 181856Z AUTO 30004KT 10SM SCT032 30/22 A2993 RMK AO2 SLP132 T03000222
KOLV 181850Z 18007KT 10SM BKN020 BKN028 BKN042 27/25 A2989
KUOX 181855Z AUTO VRB03KT 10SM BKN070 24/22 A2992 RMK AO2
KPQL 181903Z 20008KT 10SM VCTS FEW027 SCT060 31/23 A2993 RMK AO2 T03110233
KJVW 181855Z AUTO 29008KT 250V320 10SM 30/24 A2991 RMK AO2
KSTF 181855Z AUTO 25004KT 10SM SCT025 SCT029 BKN036 28/22 A2991 RMK AO2 PWINO
KUTA 181855Z AUTO 00000KT 10SM 27/22 A2989 RMK AO2 TSNO
KTUP 181853Z 10SM SCT026 OVC080 29/21 A2988 RMK AO2 SLP114 T02890211 $
KTUP 181732Z 1818/1918 21004KT P6SM VCTS SCT020CB BKN035 
     FM182200 20004KT P6SM VCSH SCT040 BKN060 
     FM190400 19003KT P6SM SCT030 BKN100 
     TEMPO 1910/1913 BKN030 
     FM191500 23008KT P6SM VCSH SCT040 BKN120
       
KVKS 181855Z AUTO 23007KT 10SM CLR 30/23 A2991 RMK A01
K5A6 181855Z AUTO 22004KT 10SM BKN022 BKN030 BKN085 28/23 A2989 RMK AO2 T02780229